createdAt,value
2018-02-03T00:01:43.093Z,26.10
2018-02-03T00:04:13.889Z,26.20
2018-02-03T00:06:45.185Z,26.20
2018-02-03T00:09:16.718Z,26.20
2018-02-03T00:11:47.187Z,26.30
2018-02-03T00:14:18.342Z,26.40
2018-02-03T00:16:49.573Z,26.50
2018-02-03T00:19:20.786Z,26.50
2018-02-03T00:21:51.647Z,26.50
2018-02-03T00:24:22.875Z,26.60
2018-02-03T00:26:53.429Z,26.60
2018-02-03T00:29:24.710Z,26.70
2018-02-03T00:31:55.225Z,26.70
2018-02-03T00:34:25.701Z,26.80
2018-02-03T00:36:56.154Z,26.90
2018-02-03T00:39:27.824Z,27.00
2018-02-03T00:41:59.098Z,27.10
2018-02-03T00:44:29.594Z,27.10
2018-02-03T00:46:59.995Z,27.10
2018-02-03T00:49:30.509Z,27.20
2018-02-03T00:52:01.124Z,27.30
2018-02-03T00:54:31.669Z,27.30
2018-02-03T00:57:03.630Z,27.40
2018-02-03T00:59:34.101Z,27.40
2018-02-03T01:02:05.350Z,27.50
2018-02-03T01:04:37.002Z,27.60
2018-02-03T01:07:08.159Z,27.60
2018-02-03T01:09:40.200Z,27.60
2018-02-03T01:12:11.425Z,27.80
2018-02-03T01:14:41.940Z,27.70
2018-02-03T01:17:12.404Z,27.80
2018-02-03T01:19:43.620Z,27.90
2018-02-03T01:22:15.522Z,27.80
2018-02-03T01:24:46.801Z,27.90
2018-02-03T01:27:17.656Z,27.90
2018-02-03T01:29:48.121Z,28.00
2018-02-03T01:32:19.274Z,28.00
2018-02-03T01:34:50.470Z,28.10
2018-02-03T01:37:20.989Z,28.00
2018-02-03T01:39:52.489Z,28.00
2018-02-03T01:42:24.034Z,28.00
2018-02-03T01:44:55.208Z,28.10
2018-02-03T01:47:26.249Z,28.10
2018-02-03T01:49:56.726Z,28.10
2018-02-03T01:52:28.226Z,28.10
2018-02-03T01:54:58.677Z,28.20
2018-02-03T01:57:32.466Z,28.20
2018-02-03T02:00:04.400Z,28.20
2018-02-03T02:02:35.579Z,28.30
2018-02-03T02:05:05.908Z,28.30
2018-02-03T02:07:36.283Z,28.30
2018-02-03T02:10:07.029Z,28.40
2018-02-03T02:12:37.621Z,28.50
2018-02-03T02:15:08.005Z,28.50
2018-02-03T02:17:38.513Z,28.50
2018-02-03T02:20:09.750Z,28.60
2018-02-03T02:22:40.949Z,28.60
2018-02-03T02:25:11.358Z,28.60
2018-02-03T02:27:42.366Z,28.70
2018-02-03T02:30:13.597Z,28.80
2018-02-03T02:32:44.179Z,28.80
2018-02-03T02:35:15.402Z,28.80
2018-02-03T02:37:45.803Z,28.90
2018-02-03T02:40:18.258Z,29.00
2018-02-03T02:42:48.657Z,28.90
2018-02-03T02:45:19.253Z,29.00
2018-02-03T02:47:50.485Z,29.00
2018-02-03T02:50:21.929Z,29.10
2018-02-03T02:52:52.312Z,29.10
2018-02-03T02:55:22.736Z,29.20
2018-02-03T02:57:53.502Z,29.30
2018-02-03T03:00:23.987Z,29.30
2018-02-03T03:02:54.349Z,29.40
2018-02-03T03:05:24.869Z,29.40
2018-02-03T03:07:55.370Z,29.50
2018-02-03T03:10:26.075Z,29.60
2018-02-03T03:13:01.363Z,29.60
2018-02-03T03:15:34.201Z,29.60
2018-02-03T03:18:06.791Z,29.60
2018-02-03T03:20:37.277Z,29.60
2018-02-03T03:23:07.751Z,29.60
2018-02-03T03:25:41.189Z,29.70
2018-02-03T03:28:18.446Z,29.70
2018-02-03T03:30:50.087Z,29.80
2018-02-03T03:33:22.327Z,29.80
2018-02-03T03:35:53.707Z,29.80
2018-02-03T03:38:26.791Z,29.80
2018-02-03T03:40:58.622Z,29.90
2018-02-03T03:43:37.246Z,30.00
2018-02-03T03:46:08.525Z,30.00
2018-02-03T03:48:43.634Z,30.00
2018-02-03T03:51:16.017Z,30.00
2018-02-03T03:53:58.920Z,30.00
2018-02-03T03:59:12.357Z,30.10
2018-02-03T04:01:48.037Z,30.20
2018-02-03T04:04:19.475Z,30.20
2018-02-03T04:06:51.189Z,30.40
2018-02-03T04:09:22.101Z,30.30
2018-02-03T04:11:54.313Z,30.40
2018-02-03T04:14:28.197Z,30.50
2018-02-03T04:16:59.413Z,30.60
2018-02-03T04:19:34.960Z,30.70
2018-02-03T04:22:11.000Z,30.80
2018-02-03T04:24:44.825Z,30.80
2018-02-03T04:27:16.493Z,30.90
2018-02-03T04:29:48.013Z,30.90
2018-02-03T04:32:23.492Z,31.00
2018-02-03T04:34:55.954Z,31.10
2018-02-03T04:37:28.018Z,31.10
2018-02-03T04:40:00.758Z,31.10
2018-02-03T04:42:34.711Z,31.20
2018-02-03T04:45:08.112Z,31.10
2018-02-03T04:50:26.390Z,31.20
2018-02-03T04:52:57.282Z,31.10
2018-02-03T04:55:27.737Z,31.20
2018-02-03T04:57:58.217Z,31.20
2018-02-03T05:00:29.473Z,31.20
2018-02-03T05:03:01.819Z,31.40
2018-02-03T05:05:32.357Z,31.30
2018-02-03T05:08:02.997Z,31.50
2018-02-03T05:10:34.252Z,31.70
2018-02-03T05:13:05.574Z,31.70
2018-02-03T05:15:37.454Z,31.70
2018-02-03T05:18:08.850Z,31.80
2018-02-03T05:20:41.038Z,31.70
2018-02-03T05:23:11.558Z,31.90
2018-02-03T05:25:41.958Z,31.90
2018-02-03T05:28:13.187Z,31.90
2018-02-03T05:30:43.694Z,31.90
2018-02-03T05:33:15.516Z,32.00
2018-02-03T05:35:46.040Z,32.00
2018-02-03T05:38:16.724Z,32.00
2018-02-03T05:40:48.245Z,32.10
2018-02-03T05:43:19.025Z,32.10
2018-02-03T05:45:49.759Z,32.10
2018-02-03T05:48:21.178Z,32.10
2018-02-03T05:50:52.755Z,32.00
2018-02-03T05:53:23.288Z,32.10
2018-02-03T05:55:54.010Z,32.10
2018-02-03T05:58:24.476Z,32.20
2018-02-03T06:00:55.141Z,32.20
2018-02-03T06:03:25.775Z,32.20
2018-02-03T06:05:56.233Z,32.20
2018-02-03T06:08:29.518Z,32.10
2018-02-03T06:11:00.016Z,32.10
2018-02-03T06:13:30.525Z,32.20
2018-02-03T06:16:01.041Z,32.30
2018-02-03T06:18:31.552Z,32.30
2018-02-03T06:21:02.227Z,32.40
2018-02-03T06:23:32.703Z,32.50
2018-02-03T06:26:03.128Z,32.50
2018-02-03T06:28:33.645Z,32.50
2018-02-03T06:31:04.082Z,32.40
2018-02-03T06:33:35.411Z,32.40
2018-02-03T06:36:06.646Z,32.30
2018-02-03T06:38:37.086Z,32.30
2018-02-03T06:41:08.259Z,32.40
2018-02-03T06:43:38.765Z,32.40
2018-02-03T06:46:10.923Z,32.50
2018-02-03T06:48:42.172Z,32.60
2018-02-03T06:51:14.643Z,32.60
2018-02-03T06:53:45.840Z,32.60
2018-02-03T06:56:16.285Z,32.60
2018-02-03T06:58:46.849Z,32.60
2018-02-03T07:01:20.017Z,32.80
2018-02-03T07:03:51.766Z,32.70
2018-02-03T07:06:22.270Z,32.80
2018-02-03T07:08:53.296Z,32.80
2018-02-03T07:11:24.541Z,32.80
2018-02-03T07:13:55.021Z,32.80
2018-02-03T07:16:26.616Z,32.90
2018-02-03T07:18:57.250Z,32.90
2018-02-03T07:21:29.821Z,32.90
2018-02-03T07:24:00.559Z,32.90
2018-02-03T07:26:31.063Z,32.90
2018-02-03T07:29:02.817Z,32.80
2018-02-03T07:31:34.137Z,32.90
2018-02-03T07:34:04.711Z,32.90
2018-02-03T07:36:35.130Z,32.80
2018-02-03T07:39:07.084Z,32.80
2018-02-03T07:41:38.285Z,32.80
2018-02-03T07:44:08.937Z,32.80
2018-02-03T07:46:40.333Z,32.80
2018-02-03T07:49:10.824Z,32.80
2018-02-03T07:51:43.670Z,32.80
2018-02-03T07:54:14.133Z,32.90
2018-02-03T07:56:45.503Z,33.00
2018-02-03T07:59:20.332Z,32.90
2018-02-03T08:01:50.903Z,32.90
2018-02-03T08:04:21.650Z,32.90
2018-02-03T08:06:52.156Z,32.90
2018-02-03T08:09:23.644Z,32.90
2018-02-03T08:11:55.073Z,32.90
2018-02-03T08:14:26.078Z,32.90
2018-02-03T08:16:56.546Z,32.90
2018-02-03T08:19:27.345Z,32.90
2018-02-03T08:21:58.406Z,32.80
2018-02-03T08:24:29.003Z,32.80
2018-02-03T08:27:00.753Z,33.00
2018-02-03T08:29:31.994Z,32.80
2018-02-03T08:32:03.598Z,32.80
2018-02-03T08:34:34.118Z,32.80
2018-02-03T08:37:04.908Z,32.80
2018-02-03T08:39:35.650Z,32.80
2018-02-03T08:42:06.907Z,32.90
2018-02-03T08:44:38.349Z,32.90
2018-02-03T08:47:09.846Z,32.90
2018-02-03T08:49:40.284Z,32.90
2018-02-03T08:52:11.774Z,32.90
2018-02-03T08:54:43.032Z,32.80
2018-02-03T08:57:14.485Z,32.90
2018-02-03T08:59:44.984Z,32.80
2018-02-03T09:02:15.457Z,32.80
2018-02-03T09:04:46.009Z,32.70
2018-02-03T09:07:16.934Z,32.60
2018-02-03T09:09:48.042Z,32.60
2018-02-03T09:12:19.245Z,32.50
2018-02-03T09:14:50.194Z,32.40
2018-02-03T09:17:20.675Z,32.40
2018-02-03T09:19:51.123Z,32.30
2018-02-03T09:22:21.550Z,32.30
2018-02-03T09:24:52.097Z,32.20
2018-02-03T09:27:22.610Z,32.20
2018-02-03T09:29:53.026Z,32.20
2018-02-03T09:32:23.498Z,32.20
2018-02-03T09:34:54.303Z,32.20
2018-02-03T09:37:25.947Z,32.10
2018-02-03T09:39:56.733Z,32.10
2018-02-03T09:42:28.821Z,32.10
2018-02-03T09:45:00.433Z,32.10
2018-02-03T09:47:31.512Z,32.00
2018-02-03T09:50:01.975Z,32.20
2018-02-03T09:52:32.381Z,31.80
2018-02-03T09:55:03.931Z,31.70
2018-02-03T09:57:34.818Z,31.60
2018-02-03T10:00:05.316Z,31.50
2018-02-03T10:02:35.778Z,31.50
2018-02-03T10:05:06.324Z,31.40
2018-02-03T10:07:38.387Z,31.30
2018-02-03T10:10:08.916Z,31.20
2018-02-03T10:12:40.162Z,31.20
2018-02-03T10:15:11.894Z,31.10
2018-02-03T10:17:44.619Z,31.10
2018-02-03T10:20:15.022Z,31.00
2018-02-03T10:22:46.870Z,31.00
2018-02-03T10:25:17.264Z,30.90
2018-02-03T10:27:48.659Z,30.90
2018-02-03T10:30:19.977Z,30.80
2018-02-03T10:32:51.208Z,30.70
2018-02-03T10:35:21.966Z,30.70
2018-02-03T10:37:52.666Z,30.60
2018-02-03T10:40:23.147Z,30.50
2018-02-03T10:42:54.418Z,30.40
2018-02-03T10:45:25.068Z,30.40
2018-02-03T10:47:55.609Z,30.40
2018-02-03T10:50:26.057Z,30.40
2018-02-03T10:52:56.548Z,30.30
2018-02-03T10:55:27.028Z,30.30
2018-02-03T10:57:57.779Z,30.20
2018-02-03T11:03:33.685Z,30.10
2018-02-03T11:06:04.487Z,30.00
2018-02-03T11:08:35.680Z,30.00
2018-02-03T11:11:06.136Z,29.90
2018-02-03T11:13:36.593Z,29.90
2018-02-03T11:16:07.862Z,29.80
2018-02-03T11:18:38.688Z,29.80
2018-02-03T11:21:09.197Z,29.80
2018-02-03T11:23:40.544Z,29.70
2018-02-03T11:26:12.023Z,29.70
2018-02-03T11:28:42.505Z,29.70
2018-02-03T11:31:13.101Z,29.60
2018-02-03T11:33:43.611Z,29.50
2018-02-03T11:36:14.247Z,29.50
2018-02-03T11:38:44.749Z,29.50
2018-02-03T11:41:15.898Z,29.40
2018-02-03T11:43:46.346Z,29.40
2018-02-03T11:46:16.842Z,29.40
2018-02-03T11:48:48.979Z,29.30
2018-02-03T11:51:20.256Z,29.30
2018-02-03T11:53:51.665Z,29.20
2018-02-03T11:56:22.201Z,29.20
2018-02-03T11:58:52.651Z,29.20
2018-02-03T12:01:23.922Z,29.10
2018-02-03T12:03:54.397Z,29.10
2018-02-03T12:06:27.839Z,29.10
2018-02-03T12:08:59.047Z,29.10
2018-02-03T12:11:29.535Z,29.00
2018-02-03T12:14:00.177Z,29.00
2018-02-03T12:16:31.249Z,29.00
2018-02-03T12:19:02.081Z,29.00
2018-02-03T12:21:32.573Z,28.90
2018-02-03T12:24:03.172Z,28.90
2018-02-03T12:26:34.849Z,28.80
2018-02-03T12:29:05.409Z,28.80
2018-02-03T12:31:36.968Z,28.80
2018-02-03T12:34:07.457Z,28.80
2018-02-03T12:36:39.413Z,28.80
2018-02-03T12:39:09.962Z,28.80
2018-02-03T12:41:41.203Z,28.80
2018-02-03T12:44:11.861Z,28.80
2018-02-03T12:46:42.392Z,28.80
2018-02-03T12:49:12.937Z,28.80
2018-02-03T12:51:44.732Z,28.80
2018-02-03T12:54:16.487Z,28.80
2018-02-03T12:56:48.798Z,28.70
2018-02-03T12:59:19.317Z,28.70
2018-02-03T13:01:50.006Z,28.70
2018-02-03T13:04:23.212Z,28.60
2018-02-03T13:06:55.050Z,28.60
2018-02-03T13:09:25.563Z,28.60
2018-02-03T13:11:56.143Z,28.60
2018-02-03T13:14:26.725Z,28.60
2018-02-03T13:16:57.750Z,28.60
2018-02-03T13:19:28.364Z,28.50
2018-02-03T13:21:58.959Z,28.40
2018-02-03T13:24:30.986Z,28.40
2018-02-03T13:27:02.185Z,28.40
2018-02-03T13:29:34.434Z,28.40
2018-02-03T13:32:05.844Z,28.40
2018-02-03T13:34:36.614Z,28.40
2018-02-03T13:37:09.161Z,28.50
2018-02-03T13:39:39.864Z,28.50
2018-02-03T13:42:11.274Z,28.60
2018-02-03T13:44:42.833Z,28.60
2018-02-03T13:47:13.493Z,28.50
2018-02-03T13:49:44.306Z,28.50
2018-02-03T13:52:14.911Z,28.50
2018-02-03T13:54:46.773Z,28.50
2018-02-03T13:57:18.871Z,28.40
2018-02-03T13:59:49.370Z,28.40
2018-02-03T14:02:20.841Z,28.40
2018-02-03T14:04:52.214Z,28.30
2018-02-03T14:07:24.117Z,28.30
2018-02-03T14:09:55.634Z,28.30
2018-02-03T14:12:27.401Z,28.30
2018-02-03T14:14:58.201Z,28.30
2018-02-03T14:17:28.864Z,28.40
2018-02-03T14:19:59.555Z,28.30
2018-02-03T14:22:31.035Z,28.30
2018-02-03T14:25:05.274Z,28.30
2018-02-03T14:27:36.027Z,28.30
2018-02-03T14:30:06.684Z,28.30
2018-02-03T14:32:38.270Z,28.30
2018-02-03T14:35:09.141Z,28.30
2018-02-03T14:37:40.815Z,28.30
2018-02-03T14:40:12.406Z,28.30
2018-02-03T14:42:43.425Z,28.30
2018-02-03T14:45:15.261Z,28.30
2018-02-03T14:47:46.452Z,28.30
2018-02-03T14:50:17.252Z,28.30
2018-02-03T14:52:48.686Z,28.30
2018-02-03T14:55:19.694Z,28.30
2018-02-03T14:57:50.600Z,28.40
2018-02-03T15:00:22.478Z,28.50
2018-02-03T15:02:53.083Z,28.50
2018-02-03T15:05:26.317Z,28.40
2018-02-03T15:07:57.102Z,28.40
2018-02-03T15:10:28.694Z,28.50
2018-02-03T15:13:00.289Z,28.40
2018-02-03T15:15:30.870Z,28.50
2018-02-03T15:18:01.799Z,28.60
2018-02-03T15:20:32.523Z,28.60
2018-02-03T15:23:03.948Z,28.50
2018-02-03T15:25:35.438Z,28.50
2018-02-03T15:28:06.040Z,28.50
2018-02-03T15:30:37.690Z,28.40
2018-02-03T15:33:09.066Z,28.40
2018-02-03T15:35:39.573Z,28.40
2018-02-03T15:38:11.004Z,28.30
2018-02-03T15:40:42.396Z,28.30
2018-02-03T15:43:13.196Z,28.30
2018-02-03T15:45:43.986Z,28.30
2018-02-03T15:48:15.090Z,28.30
2018-02-03T15:50:46.746Z,28.30
2018-02-03T15:53:18.520Z,28.30
2018-02-03T15:55:49.875Z,28.30
2018-02-03T15:58:20.563Z,28.30
2018-02-03T16:00:51.236Z,28.30
2018-02-03T16:03:21.956Z,28.40
2018-02-03T16:05:53.674Z,28.40
2018-02-03T16:08:24.301Z,28.30
2018-02-03T16:10:55.096Z,28.40
2018-02-03T16:13:26.316Z,28.30
2018-02-03T16:15:57.617Z,28.30
2018-02-03T16:18:28.816Z,28.30
2018-02-03T16:20:59.581Z,28.30
2018-02-03T16:23:30.129Z,28.30
2018-02-03T16:26:02.017Z,28.30
2018-02-03T16:28:33.760Z,28.20
2018-02-03T16:31:05.722Z,28.20
2018-02-03T16:33:37.233Z,28.10
2018-02-03T16:36:07.930Z,28.10
2018-02-03T16:38:39.510Z,28.10
2018-02-03T16:41:10.185Z,28.10
2018-02-03T16:43:43.063Z,28.10
2018-02-03T16:46:14.630Z,28.00
2018-02-03T16:48:46.236Z,28.00
2018-02-03T16:51:17.081Z,28.00
2018-02-03T16:53:47.806Z,28.00
2018-02-03T16:56:19.547Z,27.90
2018-02-03T16:58:50.889Z,27.90
2018-02-03T17:01:24.379Z,27.90
2018-02-03T17:03:56.075Z,27.90
2018-02-03T17:06:26.591Z,27.90
2018-02-03T17:08:57.078Z,27.90
2018-02-03T17:11:28.563Z,27.90
2018-02-03T17:14:00.102Z,27.90
2018-02-03T17:16:31.579Z,27.90
2018-02-03T17:19:04.051Z,27.90
2018-02-03T17:21:34.716Z,27.90
2018-02-03T17:24:05.376Z,27.90
2018-02-03T17:26:36.238Z,27.90
2018-02-03T17:29:06.969Z,27.80
2018-02-03T17:31:38.437Z,27.80
2018-02-03T17:34:08.965Z,27.80
2018-02-03T17:36:44.480Z,27.70
2018-02-03T17:39:17.014Z,27.60
2018-02-03T17:41:47.479Z,27.60
2018-02-03T17:44:20.486Z,27.60
2018-02-03T17:47:07.750Z,27.60
2018-02-03T17:49:38.288Z,27.60
2018-02-03T17:52:08.985Z,27.70
2018-02-03T17:54:39.514Z,27.70
2018-02-03T17:57:15.055Z,27.70
2018-02-03T17:59:45.562Z,27.70
2018-02-03T18:02:16.915Z,27.80
2018-02-03T18:04:48.441Z,27.80
2018-02-03T18:07:19.551Z,27.80
2018-02-03T18:09:50.017Z,27.80
2018-02-03T18:12:21.341Z,27.70
2018-02-03T18:14:53.085Z,27.70
2018-02-03T18:17:23.558Z,27.70
2018-02-03T18:19:55.629Z,27.60
2018-02-03T18:22:26.086Z,27.60
2018-02-03T18:24:56.538Z,27.60
2018-02-03T18:27:27.345Z,27.60
2018-02-03T18:29:58.086Z,27.60
2018-02-03T18:32:29.098Z,27.60
2018-02-03T18:35:00.401Z,27.50
2018-02-03T18:37:30.888Z,27.50
2018-02-03T18:40:01.529Z,27.50
2018-02-03T18:42:31.917Z,27.50
2018-02-03T18:45:04.363Z,27.40
2018-02-03T18:47:34.886Z,27.40
2018-02-03T18:50:05.337Z,27.40
2018-02-03T18:52:35.810Z,27.40
2018-02-03T18:55:06.221Z,27.40
2018-02-03T18:57:36.998Z,27.30
2018-02-03T19:00:08.309Z,27.30
2018-02-03T19:02:39.710Z,27.20
2018-02-03T19:05:10.189Z,27.20
2018-02-03T19:07:40.654Z,27.20
2018-02-03T19:10:11.170Z,27.20
2018-02-03T19:12:42.579Z,27.20
2018-02-03T19:15:14.386Z,27.20
2018-02-03T19:17:44.839Z,27.20
2018-02-03T19:20:15.353Z,27.20
2018-02-03T19:22:45.843Z,27.20
2018-02-03T19:25:16.315Z,27.20
2018-02-03T19:27:47.272Z,27.10
2018-02-03T19:30:17.731Z,27.20
2018-02-03T19:32:48.544Z,27.10
2018-02-03T19:35:19.724Z,27.10
2018-02-03T19:37:50.490Z,27.10
2018-02-03T19:40:20.997Z,27.00
2018-02-03T19:42:51.455Z,27.00
2018-02-03T19:45:22.422Z,27.00
2018-02-03T19:47:53.670Z,27.00
2018-02-03T19:50:24.862Z,27.00
2018-02-03T19:52:55.362Z,27.00
2018-02-03T19:55:25.882Z,27.00
2018-02-03T19:57:56.352Z,27.00
2018-02-03T20:00:26.882Z,27.00
2018-02-03T20:02:59.001Z,26.90
2018-02-03T20:05:29.546Z,26.90
2018-02-03T20:08:00.348Z,26.90
2018-02-03T20:10:31.526Z,26.90
2018-02-03T20:13:02.799Z,26.90
2018-02-03T20:15:33.774Z,27.00
2018-02-03T20:18:05.051Z,26.90
2018-02-03T20:20:36.958Z,26.90
2018-02-03T20:23:08.238Z,26.80
2018-02-03T20:25:39.486Z,26.80
2018-02-03T20:28:10.746Z,26.80
2018-02-03T20:30:42.190Z,26.70
2018-02-03T20:33:13.861Z,26.80
2018-02-03T20:35:44.521Z,26.70
2018-02-03T20:38:14.995Z,26.70
2018-02-03T20:40:46.301Z,26.70
2018-02-03T20:43:16.754Z,26.70
2018-02-03T20:45:47.494Z,26.70
2018-02-03T20:48:18.723Z,26.70
2018-02-03T20:50:49.637Z,26.70
2018-02-03T20:53:20.310Z,26.70
2018-02-03T20:55:52.545Z,26.70
2018-02-03T20:58:23.237Z,26.70
2018-02-03T21:00:53.882Z,26.70
2018-02-03T21:03:24.954Z,26.70
2018-02-03T21:05:56.269Z,26.60
2018-02-03T21:08:26.730Z,26.60
2018-02-03T21:10:57.146Z,26.60
2018-02-03T21:13:27.602Z,26.70
2018-02-03T21:15:59.775Z,26.70
2018-02-03T21:18:31.149Z,26.60
2018-02-03T21:21:01.981Z,26.60
2018-02-03T21:23:32.487Z,26.60
2018-02-03T21:26:03.741Z,26.50
2018-02-03T21:28:34.953Z,26.50
2018-02-03T21:31:05.430Z,26.50
2018-02-03T21:33:37.105Z,26.50
2018-02-03T21:36:07.588Z,26.50
2018-02-03T21:38:39.041Z,26.50
2018-02-03T21:41:10.268Z,26.50
2018-02-03T21:43:40.657Z,26.50
2018-02-03T21:46:12.354Z,26.50
2018-02-03T21:48:42.796Z,26.50
2018-02-03T21:51:14.600Z,26.50
2018-02-03T21:53:45.026Z,26.50
2018-02-03T21:56:15.454Z,26.50
2018-02-03T21:58:47.097Z,26.50
2018-02-03T22:01:17.550Z,26.50
2018-02-03T22:03:49.252Z,26.50
2018-02-03T22:06:20.500Z,26.50
2018-02-03T22:08:51.694Z,26.50
2018-02-03T22:11:22.169Z,26.50
2018-02-03T22:13:53.431Z,26.50
2018-02-03T22:16:23.866Z,26.50
2018-02-03T22:18:54.294Z,26.50
2018-02-03T22:21:25.886Z,26.50
2018-02-03T22:23:56.388Z,26.50
2018-02-03T22:26:26.886Z,26.60
2018-02-03T22:28:58.434Z,26.60
2018-02-03T22:31:29.675Z,26.60
2018-02-03T22:34:01.288Z,26.60
2018-02-03T22:36:33.673Z,26.60
2018-02-03T22:39:04.371Z,26.60
2018-02-03T22:41:34.867Z,26.60
2018-02-03T22:44:05.648Z,26.60
2018-02-03T22:46:36.112Z,26.60
2018-02-03T22:49:07.278Z,26.70
2018-02-03T22:51:38.925Z,26.60
2018-02-03T22:54:10.190Z,26.60
2018-02-03T22:56:41.236Z,26.60
2018-02-03T22:59:12.017Z,26.60
2018-02-03T23:01:42.464Z,26.60
2018-02-03T23:04:13.585Z,26.60
2018-02-03T23:06:44.068Z,26.60
2018-02-03T23:09:15.563Z,26.60
2018-02-03T23:11:46.066Z,26.60
2018-02-03T23:14:16.569Z,26.60
2018-02-03T23:16:47.072Z,26.60
2018-02-03T23:19:19.073Z,26.70
2018-02-03T23:21:49.567Z,26.60
2018-02-03T23:24:21.944Z,26.60
2018-02-03T23:26:52.363Z,26.60
2018-02-03T23:29:23.634Z,26.50
2018-02-03T23:31:54.133Z,26.50
2018-02-03T23:34:26.274Z,26.50
2018-02-03T23:36:58.089Z,26.50
2018-02-03T23:39:28.902Z,26.50
2018-02-03T23:42:00.134Z,26.40
2018-02-03T23:44:31.692Z,26.30
2018-02-03T23:47:02.970Z,26.40
2018-02-03T23:49:33.370Z,26.30
2018-02-03T23:52:04.918Z,26.30
2018-02-03T23:54:36.118Z,26.20
2018-02-03T23:57:06.606Z,26.20
2018-02-03T23:59:37.251Z,26.30
